Yucca, Arizona
Current Conditions -  °F | °C
As of 4:15 PM on Monday 20 Oct 2014 (Local Time) from KHII Reporting Station
Clear Clear  
Wind Chill: 90°   Ceiling: Unl
Heat Index: 90°   Visibility: 10mi
Dew Point: 45°   Wind: 5mph
Humidity: 21%   Direction: 230°SW
Pressure: 29.79"   Gusts: NA
Location:  34.87°N, 114.15°W
Report Text: KHII 202315Z AUTO 23004KT 10SM CLR 32/07 A2979 RMK AO2
Loading
Personal Weather Stations






























Interactive Weather Map
Tropical Storm Tracking
New forecast layout! Learn more

10-Day Weather Forecast

Advertisements
Track Severe Weather on mobile